Time;durP1;ratioP1;P1;durP2;ratioP2;P2;SDS_P1;SDS_P2;PMS_P1;PMS_P2;Temp;Humidity;BMP_temperature;BMP_pressure;BME280_temperature;BME280_humidity;BME280_pressure;Samples;Min_cycle;Max_cycle;Signal;HPM_P1;HPM_P2
2021/11/06 00:00:32;;;;;;;;;;;7.90;96.30;;;;;;5036581;28;19968;-79
2021/11/06 00:02:57;;;;;;;;;;;7.90;96.30;;;;;;5036617;28;19909;-79
2021/11/06 00:05:23;;;;;;;;;;;7.90;96.30;;;;;;5036581;28;20022;-79
2021/11/06 00:07:48;;;;;;;;;;;7.90;96.30;;;;;;5036571;28;20021;-79
2021/11/06 00:10:14;;;;;;;;;;;7.90;96.40;;;;;;5036116;28;20273;-79
2021/11/06 00:12:40;;;;;;;;;;;7.80;96.30;;;;;;5036523;28;19913;-79
2021/11/06 00:15:06;;;;;;;;;;;7.80;96.30;;;;;;5036389;28;19954;-79
2021/11/06 00:17:32;;;;;;;;;;;7.80;96.30;;;;;;5036226;28;19976;-78
2021/11/06 00:19:58;;;;;;;;;;;7.80;96.30;;;;;;5036314;28;19956;-79
2021/11/06 00:22:23;;;;;;;;;;;7.70;96.30;;;;;;5036208;28;19913;-79
2021/11/06 00:24:49;;;;;;;;;;;7.70;96.30;;;;;;5035371;28;19955;-79
2021/11/06 00:27:14;;;;;;;;;;;7.70;96.30;;;;;;5036205;28;19954;-79
2021/11/06 00:29:40;;;;;;;;;;;7.60;96.30;;;;;;5036222;28;19909;-79
2021/11/06 00:32:06;;;;;;;;;;;7.60;96.30;;;;;;5036076;28;19928;-79
2021/11/06 00:34:31;;;;;;;;;;;7.60;96.30;;;;;;5035960;28;20377;-79
2021/11/06 00:36:57;;;;;;;;;;;7.60;96.30;;;;;;5036081;28;19909;-79
2021/11/06 00:39:22;;;;;;;;;;;7.50;96.30;;;;;;5035507;28;19909;-79
2021/11/06 00:41:48;;;;;;;;;;;7.50;96.60;;;;;;5035836;28;19920;-79
2021/11/06 00:44:13;;;;;;;;;;;7.40;96.40;;;;;;5035890;28;19936;-79
2021/11/06 00:46:39;;;;;;;;;;;7.50;96.50;;;;;;5035863;28;19909;-79
2021/11/06 00:49:04;;;;;;;;;;;7.50;96.40;;;;;;5035792;28;19948;-79
2021/11/06 00:51:30;;;;;;;;;;;7.50;96.50;;;;;;5035694;28;19913;-79
2021/11/06 00:53:55;;;;;;;;;;;7.50;96.40;;;;;;5035291;28;19916;-79
2021/11/06 00:56:21;;;;;;;;;;;7.40;96.40;;;;;;5035635;28;20380;-79
2021/11/06 00:58:46;;;;;;;;;;;7.40;96.40;;;;;;5035707;28;19916;-79
2021/11/06 01:01:12;;;;;;;;;;;7.40;96.40;;;;;;5035512;28;19967;-79
2021/11/06 01:03:37;;;;;;;;;;;7.40;96.40;;;;;;5035469;28;19909;-79
2021/11/06 01:06:02;;;;;;;;;;;7.40;96.40;;;;;;5034360;28;19910;-79
2021/11/06 01:08:30;;;;;;;;;;;7.40;96.40;;;;;;5034997;28;19963;-79
2021/11/06 01:10:56;;;;;;;;;;;7.40;96.40;;;;;;5035423;28;19922;-80
2021/11/06 01:13:22;;;;;;;;;;;7.40;96.40;;;;;;5035238;28;19913;-79
2021/11/06 01:15:47;;;;;;;;;;;7.40;96.40;;;;;;5035245;28;19976;-79
2021/11/06 01:18:13;;;;;;;;;;;7.40;96.50;;;;;;5035160;28;20377;-79
2021/11/06 01:20:39;;;;;;;;;;;7.40;96.40;;;;;;5035208;28;19917;-80
2021/11/06 01:23:04;;;;;;;;;;;7.40;96.40;;;;;;5034934;28;19941;-79
2021/11/06 01:25:30;;;;;;;;;;;7.50;96.50;;;;;;5035086;28;20346;-79
2021/11/06 01:27:56;;;;;;;;;;;7.50;96.40;;;;;;5034904;28;19913;-80
2021/11/06 01:30:22;;;;;;;;;;;7.50;96.30;;;;;;5035054;28;19924;-79
2021/11/06 01:32:49;;;;;;;;;;;7.50;96.40;;;;;;5034980;28;19909;-79
2021/11/06 01:35:16;;;;;;;;;;;7.50;96.40;;;;;;5034976;28;19910;-79
2021/11/06 01:37:42;;;;;;;;;;;7.50;96.40;;;;;;5033626;28;19919;-79
2021/11/06 01:40:08;;;;;;;;;;;7.50;96.40;;;;;;5034859;28;20011;-79
2021/11/06 01:42:34;;;;;;;;;;;7.50;96.40;;;;;;5034800;28;19909;-79
2021/11/06 01:44:59;;;;;;;;;;;7.50;96.50;;;;;;5034718;28;19909;-79
2021/11/06 01:47:25;;;;;;;;;;;7.50;96.50;;;;;;5034805;28;20000;-79
2021/11/06 01:49:51;;;;;;;;;;;7.50;96.50;;;;;;5034728;28;20004;-78
2021/11/06 01:52:16;;;;;;;;;;;7.50;96.50;;;;;;5034289;28;19916;-80
2021/11/06 01:54:42;;;;;;;;;;;7.50;96.40;;;;;;5034681;28;19971;-79
2021/11/06 01:57:07;;;;;;;;;;;7.60;96.50;;;;;;5034621;28;20417;-79
2021/11/06 01:59:32;;;;;;;;;;;7.60;96.50;;;;;;5034366;28;20301;-79
2021/11/06 02:01:58;;;;;;;;;;;7.60;96.40;;;;;;5034458;28;19909;-79
2021/11/06 02:04:23;;;;;;;;;;;7.60;96.40;;;;;;5034415;28;19988;-79
2021/11/06 02:06:49;;;;;;;;;;;7.60;96.30;;;;;;5033934;28;20391;-79
2021/11/06 02:09:14;;;;;;;;;;;7.70;96.40;;;;;;5034265;28;19909;-79
2021/11/06 02:11:40;;;;;;;;;;;7.70;96.30;;;;;;5034248;28;19909;-79
2021/11/06 02:14:06;;;;;;;;;;;7.70;96.40;;;;;;5034423;28;19913;-79
2021/11/06 02:16:31;;;;;;;;;;;7.70;96.30;;;;;;5033989;28;20290;-79
2021/11/06 02:18:57;;;;;;;;;;;7.70;96.30;;;;;;5034134;28;19909;-79
2021/11/06 02:21:22;;;;;;;;;;;7.70;96.30;;;;;;5033537;28;19932;-79
2021/11/06 02:23:49;;;;;;;;;;;7.70;96.30;;;;;;5034075;28;19910;-79
2021/11/06 02:26:16;;;;;;;;;;;7.70;96.30;;;;;;5034187;28;19935;-79
2021/11/06 02:28:49;;;;;;;;;;;7.70;96.30;;;;;;5034040;28;19916;-80
2021/11/06 02:31:14;;;;;;;;;;;7.70;96.30;;;;;;5034028;28;20012;-79
2021/11/06 02:33:40;;;;;;;;;;;7.70;96.30;;;;;;5033853;28;19909;-79
2021/11/06 02:36:05;;;;;;;;;;;7.70;96.30;;;;;;5033519;28;20357;-79
2021/11/06 02:38:31;;;;;;;;;;;7.70;96.40;;;;;;5033924;28;19916;-79
2021/11/06 02:40:56;;;;;;;;;;;7.70;96.40;;;;;;5033793;28;20331;-79
2021/11/06 02:43:22;;;;;;;;;;;7.70;96.40;;;;;;5033781;28;20332;-79
2021/11/06 02:45:47;;;;;;;;;;;7.70;96.40;;;;;;5033712;28;19959;-80
2021/11/06 02:48:13;;;;;;;;;;;7.80;96.40;;;;;;5033542;28;19909;-79
2021/11/06 02:50:38;;;;;;;;;;;7.80;96.30;;;;;;5033290;28;20357;-79
2021/11/06 02:53:04;;;;;;;;;;;7.80;96.30;;;;;;5033697;28;19917;-80
2021/11/06 02:55:30;;;;;;;;;;;7.80;96.30;;;;;;5033840;28;20281;-79
2021/11/06 02:57:55;;;;;;;;;;;7.70;96.30;;;;;;5033644;28;20020;-78
2021/11/06 03:00:21;;;;;;;;;;;7.80;96.30;;;;;;5033523;28;19917;-79
2021/11/06 03:02:47;;;;;;;;;;;7.80;96.40;;;;;;5033532;28;19913;-79
2021/11/06 03:05:13;;;;;;;;;;;7.80;96.40;;;;;;5033239;28;20381;-78
2021/11/06 03:07:39;;;;;;;;;;;7.80;96.40;;;;;;5033539;28;19917;-79
2021/11/06 03:10:07;;;;;;;;;;;7.80;96.40;;;;;;5033641;28;20380;-79
2021/11/06 03:12:32;;;;;;;;;;;7.90;96.40;;;;;;5033567;28;19915;-79
2021/11/06 03:14:58;;;;;;;;;;;7.90;96.30;;;;;;5033509;28;19944;-79
2021/11/06 03:17:23;;;;;;;;;;;7.90;96.30;;;;;;5032793;28;19921;-79
2021/11/06 03:19:51;;;;;;;;;;;8.00;96.30;;;;;;5032944;28;21236;-79
2021/11/06 03:22:16;;;;;;;;;;;8.00;96.30;;;;;;5033329;28;19909;-79
2021/11/06 03:24:42;;;;;;;;;;;8.00;96.30;;;;;;5033569;28;19920;-79
2021/11/06 03:27:07;;;;;;;;;;;8.00;96.30;;;;;;5033397;28;19963;-79
2021/11/06 03:29:33;;;;;;;;;;;8.00;96.30;;;;;;5033384;28;20369;-79
2021/11/06 03:31:59;;;;;;;;;;;8.00;96.30;;;;;;5032957;28;19955;-78
2021/11/06 03:34:25;;;;;;;;;;;8.00;96.30;;;;;;5033430;28;19964;-79
2021/11/06 03:36:50;;;;;;;;;;;8.00;96.30;;;;;;5033182;28;19913;-79
2021/11/06 03:39:16;;;;;;;;;;;8.00;96.30;;;;;;5033319;28;19982;-79
2021/11/06 03:41:41;;;;;;;;;;;8.00;96.20;;;;;;5033087;28;20023;-79
2021/11/06 03:44:07;;;;;;;;;;;8.00;96.30;;;;;;5033235;28;19916;-79
2021/11/06 03:46:33;;;;;;;;;;;8.00;96.20;;;;;;5032862;28;19909;-79
2021/11/06 03:48:59;;;;;;;;;;;8.00;96.20;;;;;;5033105;28;19963;-79
2021/11/06 03:51:24;;;;;;;;;;;8.00;96.20;;;;;;5033136;28;19913;-80
2021/11/06 03:53:50;;;;;;;;;;;8.00;96.30;;;;;;5033114;28;19916;-79
2021/11/06 03:56:16;;;;;;;;;;;8.00;96.30;;;;;;5033153;28;19919;-80
2021/11/06 03:58:41;;;;;;;;;;;8.00;96.30;;;;;;5033165;28;19916;-79
2021/11/06 04:01:06;;;;;;;;;;;8.00;96.30;;;;;;5034907;28;19924;-79
2021/11/06 04:03:32;;;;;;;;;;;8.00;96.30;;;;;;5036720;28;20246;-79
2021/11/06 04:05:57;;;;;;;;;;;8.00;96.30;;;;;;5035375;28;20354;-79
2021/11/06 04:08:23;;;;;;;;;;;8.00;96.30;;;;;;5036553;28;19909;-79
2021/11/06 04:10:48;;;;;;;;;;;8.00;96.30;;;;;;5036634;28;19909;-79
2021/11/06 04:13:14;;;;;;;;;;;8.00;96.30;;;;;;5036535;28;20000;-79
2021/11/06 04:15:40;;;;;;;;;;;8.00;96.30;;;;;;5035933;28;19909;-79
2021/11/06 04:18:06;;;;;;;;;;;8.00;96.30;;;;;;5036268;28;20397;-80
2021/11/06 04:20:31;;;;;;;;;;;8.00;96.30;;;;;;5036330;28;19917;-80
2021/11/06 04:22:57;;;;;;;;;;;8.10;96.30;;;;;;5036520;28;20436;-79
2021/11/06 04:25:23;;;;;;;;;;;8.10;96.30;;;;;;5036245;28;19909;-79
2021/11/06 04:27:48;;;;;;;;;;;8.10;96.30;;;;;;5036317;28;19916;-79
2021/11/06 04:30:14;;;;;;;;;;;8.00;96.30;;;;;;5035820;28;19952;-79
2021/11/06 04:32:40;;;;;;;;;;;8.00;96.30;;;;;;5036051;28;20274;-79
2021/11/06 04:35:05;;;;;;;;;;;8.00;96.30;;;;;;5036114;28;19909;-79
2021/11/06 04:37:31;;;;;;;;;;;8.00;96.30;;;;;;5036073;28;19909;-80
2021/11/06 04:39:56;;;;;;;;;;;8.00;96.30;;;;;;5035932;28;19917;-79
2021/11/06 04:42:21;;;;;;;;;;;7.90;96.30;;;;;;5036048;28;20003;-79
2021/11/06 04:44:47;;;;;;;;;;;7.90;96.30;;;;;;5035512;28;19992;-79
2021/11/06 04:47:12;;;;;;;;;;;7.90;96.40;;;;;;5035788;28;19909;-78
2021/11/06 04:49:38;;;;;;;;;;;7.90;96.40;;;;;;5034598;28;19909;-78
2021/11/06 04:52:04;;;;;;;;;;;7.90;96.50;;;;;;5035760;28;19909;-78
2021/11/06 04:54:29;;;;;;;;;;;7.90;96.50;;;;;;5035763;28;19910;-80
2021/11/06 04:56:55;;;;;;;;;;;7.90;96.50;;;;;;5035721;28;20385;-80
2021/11/06 04:59:20;;;;;;;;;;;7.90;96.40;;;;;;5035456;28;20369;-80
2021/11/06 05:01:46;;;;;;;;;;;7.90;96.40;;;;;;5035419;28;20014;-80
2021/11/06 05:04:12;;;;;;;;;;;7.90;96.40;;;;;;5035781;28;19916;-80
2021/11/06 05:06:37;;;;;;;;;;;7.90;96.40;;;;;;5035453;28;19909;-79
2021/11/06 05:09:03;;;;;;;;;;;7.90;96.40;;;;;;5035589;28;19915;-80
2021/11/06 05:11:28;;;;;;;;;;;7.90;96.50;;;;;;5035259;28;20008;-78
2021/11/06 05:13:54;;;;;;;;;;;7.90;96.40;;;;;;5035246;28;19927;-83
2021/11/06 05:16:19;;;;;;;;;;;7.90;96.50;;;;;;5035506;28;19909;-82
2021/11/06 05:18:45;;;;;;;;;;;7.90;96.50;;;;;;5035731;28;20362;-79
2021/11/06 05:21:11;;;;;;;;;;;7.90;96.50;;;;;;5035735;28;19957;-85
2021/11/06 05:23:36;;;;;;;;;;;7.90;96.50;;;;;;5035574;28;20349;-78
2021/11/06 05:26:02;;;;;;;;;;;7.90;96.40;;;;;;5035461;28;20013;-82
2021/11/06 05:28:28;;;;;;;;;;;8.00;96.40;;;;;;5034889;28;19932;-80
2021/11/06 05:30:53;;;;;;;;;;;7.90;96.30;;;;;;5034877;28;20296;-80
2021/11/06 05:33:18;;;;;;;;;;;8.00;96.40;;;;;;5035120;28;19909;-81
2021/11/06 05:35:44;;;;;;;;;;;7.90;96.40;;;;;;5034963;28;20358;-80
2021/11/06 05:38:09;;;;;;;;;;;7.90;96.40;;;;;;5035058;28;20247;-80
2021/11/06 05:40:35;;;;;;;;;;;7.90;96.50;;;;;;5034876;28;19925;-80
2021/11/06 05:43:01;;;;;;;;;;;7.90;96.50;;;;;;5033148;28;19910;-80
2021/11/06 05:45:27;;;;;;;;;;;7.90;96.50;;;;;;5034764;28;19913;-80
2021/11/06 05:47:52;;;;;;;;;;;7.80;96.50;;;;;;5034738;28;20349;-80
2021/11/06 05:50:18;;;;;;;;;;;7.90;96.50;;;;;;5034749;28;19910;-80
2021/11/06 05:52:43;;;;;;;;;;;7.90;96.50;;;;;;5034587;28;19913;-81
2021/11/06 05:55:11;;;;;;;;;;;7.90;96.50;;;;;;5034630;28;19909;-81
2021/11/06 05:57:36;;;;;;;;;;;7.80;96.50;;;;;;5034210;28;19985;-81
2021/11/06 06:00:06;;;;;;;;;;;7.80;96.50;;;;;;5034451;28;19932;-80
2021/11/06 06:02:32;;;;;;;;;;;7.80;96.60;;;;;;5034647;28;19988;-80
2021/11/06 06:04:57;;;;;;;;;;;7.90;96.60;;;;;;5034511;28;19960;-80
2021/11/06 06:07:23;;;;;;;;;;;7.90;96.50;;;;;;5034208;28;19909;-80
2021/11/06 06:09:48;;;;;;;;;;;7.90;96.50;;;;;;5034411;28;19978;-80
2021/11/06 06:12:13;;;;;;;;;;;8.00;96.50;;;;;;5034086;28;19916;-81
2021/11/06 06:14:39;;;;;;;;;;;8.00;96.50;;;;;;5034316;28;19913;-80
2021/11/06 06:17:05;;;;;;;;;;;8.00;96.50;;;;;;5034120;28;19964;-80
2021/11/06 06:19:30;;;;;;;;;;;8.00;96.50;;;;;;5034170;28;19909;-80
2021/11/06 06:21:55;;;;;;;;;;;8.00;96.50;;;;;;5034082;28;19920;-79
2021/11/06 06:24:21;;;;;;;;;;;8.10;96.40;;;;;;5033863;28;19935;-80
2021/11/06 06:26:46;;;;;;;;;;;8.10;96.40;;;;;;5033689;28;19913;-80
2021/11/06 06:29:12;;;;;;;;;;;8.10;96.50;;;;;;5034003;28;19913;-80
2021/11/06 06:31:37;;;;;;;;;;;8.10;96.50;;;;;;5033925;28;20263;-80
2021/11/06 06:34:03;;;;;;;;;;;8.10;96.40;;;;;;5034027;28;20004;-80
2021/11/06 06:36:28;;;;;;;;;;;8.10;96.40;;;;;;5033915;28;19909;-80
2021/11/06 06:38:54;;;;;;;;;;;8.20;96.40;;;;;;5033978;28;19913;-81
2021/11/06 06:41:19;;;;;;;;;;;8.10;96.40;;;;;;5033222;28;19917;-80
2021/11/06 06:43:45;;;;;;;;;;;8.10;96.40;;;;;;5033808;28;20038;-80
2021/11/06 06:46:10;;;;;;;;;;;8.20;96.40;;;;;;5034039;28;19909;-80
2021/11/06 06:48:36;;;;;;;;;;;8.20;96.40;;;;;;5033890;28;20373;-81
2021/11/06 06:51:01;;;;;;;;;;;8.10;96.40;;;;;;5033756;28;20404;-80
2021/11/06 06:53:27;;;;;;;;;;;8.10;96.40;;;;;;5033713;28;19909;-81
2021/11/06 06:55:52;;;;;;;;;;;8.10;96.40;;;;;;5033256;28;19917;-80
2021/11/06 06:58:18;;;;;;;;;;;8.10;96.40;;;;;;5033666;28;19909;-80
2021/11/06 07:00:43;;;;;;;;;;;8.20;96.50;;;;;;5033804;28;20380;-80
2021/11/06 07:03:09;;;;;;;;;;;8.20;96.50;;;;;;5033871;28;19915;-82
2021/11/06 07:05:34;;;;;;;;;;;8.20;96.50;;;;;;5033936;28;20054;-79
2021/11/06 07:08:00;;;;;;;;;;;8.20;96.40;;;;;;5033525;28;19909;-83
2021/11/06 07:10:25;;;;;;;;;;;8.20;96.40;;;;;;5033116;28;19913;-80
2021/11/06 07:12:51;;;;;;;;;;;8.30;96.40;;;;;;5033541;28;20421;-80
2021/11/06 07:15:17;;;;;;;;;;;8.30;96.40;;;;;;5033543;28;19932;-80
2021/11/06 07:17:42;;;;;;;;;;;8.30;96.30;;;;;;5033388;28;20016;-80
2021/11/06 07:20:08;;;;;;;;;;;8.30;96.40;;;;;;5033430;28;20270;-81
2021/11/06 07:22:35;;;;;;;;;;;8.30;96.40;;;;;;5032315;28;19909;-81
2021/11/06 07:25:00;;;;;;;;;;;8.30;96.40;;;;;;5033155;28;19909;-83
2021/11/06 07:27:26;;;;;;;;;;;8.30;96.40;;;;;;5034209;28;19919;-86
2021/11/06 07:29:51;;;;;;;;;;;8.30;96.40;;;;;;5034236;28;20342;-83
2021/11/06 07:32:17;;;;;;;;;;;8.40;96.40;;;;;;5034399;28;19916;-88
2021/11/06 07:34:42;;;;;;;;;;;8.40;96.40;;;;;;5034637;28;19909;-80
2021/11/06 07:37:08;;;;;;;;;;;8.40;96.30;;;;;;5037115;28;19935;-82
2021/11/06 07:39:34;;;;;;;;;;;8.40;96.30;;;;;;5037431;28;19924;-86
2021/11/06 07:41:59;;;;;;;;;;;8.40;96.30;;;;;;5037612;28;20011;-85
2021/11/06 07:44:25;;;;;;;;;;;8.40;96.30;;;;;;5037449;28;20036;-83
2021/11/06 07:46:50;;;;;;;;;;;8.40;96.30;;;;;;5037250;28;19909;-84
2021/11/06 07:49:16;;;;;;;;;;;8.40;96.40;;;;;;5037741;28;19913;-84
2021/11/06 07:51:41;;;;;;;;;;;8.50;96.40;;;;;;5037696;28;20050;-86
2021/11/06 07:54:07;;;;;;;;;;;8.50;96.40;;;;;;5037123;28;19909;-84
2021/11/06 07:56:34;;;;;;;;;;;8.50;96.40;;;;;;5037205;28;20328;-86
2021/11/06 07:59:00;;;;;;;;;;;8.50;96.40;;;;;;5037083;28;19916;-83
2021/11/06 08:01:26;;;;;;;;;;;8.50;96.30;;;;;;5037108;28;19918;-87
2021/11/06 08:03:52;;;;;;;;;;;8.60;96.40;;;;;;5036933;28;19959;-83
2021/11/06 08:06:18;;;;;;;;;;;8.50;96.30;;;;;;5036786;28;19944;-83
2021/11/06 08:08:43;;;;;;;;;;;8.60;96.40;;;;;;5036357;28;19932;-83
2021/11/06 08:11:09;;;;;;;;;;;8.60;96.40;;;;;;5036944;28;20365;-84
2021/11/06 08:13:34;;;;;;;;;;;8.60;96.30;;;;;;5036778;28;19963;-82
2021/11/06 08:16:00;;;;;;;;;;;8.60;96.60;;;;;;5036697;28;19909;-84
2021/11/06 08:18:26;;;;;;;;;;;8.70;96.40;;;;;;5036358;28;19987;-83
2021/11/06 08:20:54;;;;;;;;;;;8.70;96.40;;;;;;5036778;28;20017;-84
2021/11/06 08:23:19;;;;;;;;;;;8.80;96.30;;;;;;5036319;28;20286;-83
2021/11/06 08:25:47;;;;;;;;;;;8.90;96.30;;;;;;5036268;28;19909;-82
2021/11/06 08:28:12;;;;;;;;;;;8.90;96.30;;;;;;5036659;28;20375;-84
2021/11/06 08:30:38;;;;;;;;;;;9.00;96.30;;;;;;5036460;28;20365;-80
2021/11/06 08:33:03;;;;;;;;;;;9.10;96.30;;;;;;5036094;28;19916;-81
2021/11/06 08:35:30;;;;;;;;;;;9.10;96.30;;;;;;5036224;28;19909;-80
2021/11/06 08:37:57;;;;;;;;;;;9.20;96.30;;;;;;5035539;28;19909;-81
2021/11/06 08:40:23;;;;;;;;;;;9.20;96.20;;;;;;5035965;28;19917;-81
2021/11/06 08:42:48;;;;;;;;;;;9.10;96.20;;;;;;5036085;28;20004;-84
2021/11/06 08:45:14;;;;;;;;;;;9.10;96.20;;;;;;5035882;28;20358;-83
2021/11/06 08:47:41;;;;;;;;;;;9.10;96.30;;;;;;5035976;28;19910;-83
2021/11/06 08:50:08;;;;;;;;;;;9.10;96.30;;;;;;5036196;28;19913;-84
2021/11/06 08:52:34;;;;;;;;;;;9.10;96.30;;;;;;5035661;28;20296;-84
2021/11/06 08:54:59;;;;;;;;;;;9.20;96.30;;;;;;5035582;28;20007;-84
2021/11/06 08:57:25;;;;;;;;;;;9.20;96.30;;;;;;5035756;28;19967;-84
2021/11/06 08:59:54;;;;;;;;;;;9.30;96.30;;;;;;5035763;28;20365;-83
2021/11/06 09:02:20;;;;;;;;;;;9.30;96.30;;;;;;5035802;28;20013;-84
2021/11/06 09:04:47;;;;;;;;;;;9.40;96.30;;;;;;5035776;28;19909;-83
2021/11/06 09:07:12;;;;;;;;;;;9.40;96.20;;;;;;5035287;28;19952;-83
2021/11/06 09:09:38;;;;;;;;;;;9.40;96.10;;;;;;5035786;28;19913;-84
2021/11/06 09:12:04;;;;;;;;;;;9.50;96.20;;;;;;5035738;28;19910;-85
2021/11/06 09:14:29;;;;;;;;;;;9.50;96.30;;;;;;5035821;28;19917;-84
2021/11/06 09:16:55;;;;;;;;;;;9.50;96.30;;;;;;5035482;28;19921;-83
2021/11/06 09:19:20;;;;;;;;;;;9.50;96.20;;;;;;5035536;28;19909;-84
2021/11/06 09:21:46;;;;;;;;;;;9.60;96.20;;;;;;5034980;28;20020;-84
2021/11/06 09:24:12;;;;;;;;;;;9.50;96.20;;;;;;5035633;28;20370;-84
2021/11/06 09:26:39;;;;;;;;;;;9.60;96.30;;;;;;5035564;28;19955;-84
2021/11/06 09:29:07;;;;;;;;;;;9.60;96.30;;;;;;5035528;28;20277;-85
2021/11/06 09:31:32;;;;;;;;;;;9.60;96.30;;;;;;5035527;28;19909;-84
2021/11/06 09:33:57;;;;;;;;;;;9.50;96.20;;;;;;5035199;28;19909;-84
2021/11/06 09:36:23;;;;;;;;;;;9.50;96.30;;;;;;5035022;28;20000;-84
2021/11/06 09:38:49;;;;;;;;;;;9.60;96.30;;;;;;5035260;28;19955;-84
2021/11/06 09:41:16;;;;;;;;;;;9.60;96.30;;;;;;5034881;28;20017;-83
2021/11/06 09:43:42;;;;;;;;;;;9.60;96.40;;;;;;5035262;28;19917;-83
2021/11/06 09:46:09;;;;;;;;;;;9.70;96.40;;;;;;5035094;28;19978;-84
2021/11/06 09:48:35;;;;;;;;;;;9.80;96.40;;;;;;5035307;28;19952;-84
2021/11/06 09:51:00;;;;;;;;;;;9.80;96.30;;;;;;5034573;28;19976;-84
2021/11/06 09:53:30;;;;;;;;;;;9.90;96.30;;;;;;5034866;28;19913;-84
2021/11/06 09:55:56;;;;;;;;;;;10.00;96.30;;;;;;5034969;28;19916;-85
2021/11/06 09:58:21;;;;;;;;;;;10.10;96.30;;;;;;5034253;28;19910;-84
2021/11/06 10:00:47;;;;;;;;;;;10.10;96.30;;;;;;5034797;28;19924;-83
2021/11/06 10:03:13;;;;;;;;;;;10.20;96.20;;;;;;5034745;28;19916;-83
2021/11/06 10:05:53;;;;;;;;;;;10.20;96.30;;;;;;5034222;28;19909;-83
2021/11/06 10:08:19;;;;;;;;;;;10.20;96.30;;;;;;5034790;28;19909;-83
2021/11/06 10:10:45;;;;;;;;;;;10.30;96.30;;;;;;5034528;28;19910;-84
2021/11/06 10:13:10;;;;;;;;;;;10.30;96.30;;;;;;5034642;28;19909;-84
2021/11/06 10:15:40;;;;;;;;;;;10.40;96.30;;;;;;5034685;28;20404;-84
2021/11/06 10:18:19;;;;;;;;;;;10.40;96.20;;;;;;5034397;28;20040;-85
2021/11/06 10:20:47;;;;;;;;;;;10.40;96.20;;;;;;5034514;28;20349;-84
2021/11/06 10:23:13;;;;;;;;;;;10.40;96.30;;;;;;5034608;28;20393;-83
2021/11/06 10:25:40;;;;;;;;;;;10.40;96.30;;;;;;5034303;28;19953;-84
2021/11/06 10:28:10;;;;;;;;;;;10.50;96.30;;;;;;5034187;28;19916;-83
2021/11/06 10:30:39;;;;;;;;;;;10.50;96.30;;;;;;5034411;28;19909;-83
2021/11/06 10:33:15;;;;;;;;;;;10.50;96.20;;;;;;5033849;28;19913;-83
2021/11/06 10:35:44;;;;;;;;;;;10.60;96.30;;;;;;5034438;28;20329;-83
2021/11/06 10:38:21;;;;;;;;;;;10.60;96.30;;;;;;5034133;28;19978;-84
2021/11/06 10:40:49;;;;;;;;;;;10.60;96.60;;;;;;5034269;28;20020;-85
2021/11/06 10:43:16;;;;;;;;;;;10.70;96.30;;;;;;5034102;28;19940;-85
2021/11/06 10:45:43;;;;;;;;;;;10.70;96.20;;;;;;5032952;28;20313;-83
2021/11/06 10:48:16;;;;;;;;;;;10.70;96.20;;;;;;5033787;28;19936;-83
2021/11/06 10:50:50;;;;;;;;;;;10.80;96.30;;;;;;5033897;28;19960;-84
2021/11/06 10:53:33;;;;;;;;;;;10.80;96.30;;;;;;5032863;28;19910;-84
2021/11/06 10:55:59;;;;;;;;;;;10.90;96.30;;;;;;5033848;28;20312;-83
2021/11/06 10:58:26;;;;;;;;;;;10.90;96.30;;;;;;5032675;28;19909;-84
2021/11/06 11:00:56;;;;;;;;;;;11.00;96.30;;;;;;5033980;28;19917;-85
2021/11/06 11:03:26;;;;;;;;;;;11.00;96.20;;;;;;5033799;28;20361;-83
2021/11/06 11:05:52;;;;;;;;;;;11.00;96.30;;;;;;5033781;28;19924;-83
2021/11/06 11:08:18;;;;;;;;;;;11.10;96.30;;;;;;5033707;28;19944;-83
2021/11/06 11:10:44;;;;;;;;;;;11.20;96.60;;;;;;5037890;28;20354;-83
2021/11/06 11:13:10;;;;;;;;;;;11.20;96.30;;;;;;5037842;28;19909;-83
2021/11/06 11:15:35;;;;;;;;;;;11.30;96.30;;;;;;5037660;28;19920;-83
2021/11/06 11:18:01;;;;;;;;;;;11.30;96.20;;;;;;5035837;28;20032;-84
2021/11/06 11:20:27;;;;;;;;;;;11.30;96.20;;;;;;5037646;28;19927;-82
2021/11/06 11:23:07;;;;;;;;;;;11.30;96.20;;;;;;5037728;28;19909;-83
2021/11/06 11:25:32;;;;;;;;;;;11.30;96.30;;;;;;5037735;28;19964;-83
2021/11/06 11:27:58;;;;;;;;;;;11.20;96.30;;;;;;5037748;28;19909;-81
2021/11/06 11:30:23;;;;;;;;;;;11.30;96.30;;;;;;5037004;28;19932;-80
2021/11/06 11:32:48;;;;;;;;;;;11.30;96.40;;;;;;5037351;28;19909;-82
2021/11/06 11:35:14;;;;;;;;;;;11.30;96.30;;;;;;5037467;28;20023;-82
2021/11/06 11:37:39;;;;;;;;;;;11.30;96.30;;;;;;5035902;28;19913;-83
2021/11/06 11:40:05;;;;;;;;;;;11.30;96.30;;;;;;5037463;28;19924;-82
2021/11/06 11:42:40;;;;;;;;;;;11.30;96.30;;;;;;5037262;28;19916;-81
2021/11/06 11:45:14;;;;;;;;;;;11.30;96.30;;;;;;5037025;28;20305;-85
2021/11/06 11:47:53;;;;;;;;;;;11.30;96.30;;;;;;5037789;28;19955;-84
2021/11/06 11:50:23;;;;;;;;;;;11.30;96.40;;;;;;5037373;28;19917;-84
2021/11/06 11:52:50;;;;;;;;;;;11.40;96.60;;;;;;5037140;28;19916;-83
2021/11/06 11:55:36;;;;;;;;;;;11.40;96.40;;;;;;5036882;28;19909;-83
2021/11/06 11:58:07;;;;;;;;;;;11.40;96.40;;;;;;5032852;28;19909;-82
2021/11/06 12:00:34;;;;;;;;;;;11.40;96.40;;;;;;5036330;28;20377;-83
2021/11/06 12:03:00;;;;;;;;;;;11.40;96.30;;;;;;5037199;28;20422;-84
2021/11/06 12:05:26;;;;;;;;;;;11.30;96.40;;;;;;5036767;28;19909;-83
2021/11/06 12:08:10;;;;;;;;;;;11.30;96.50;;;;;;5037027;28;19909;-84
2021/11/06 12:10:35;;;;;;;;;;;11.30;96.40;;;;;;5037075;28;20371;-84
2021/11/06 12:13:01;;;;;;;;;;;11.40;96.60;;;;;;5036868;28;19995;-88
2021/11/06 12:15:53;;;;;;;;;;;11.50;96.60;;;;;;5036619;28;19935;-80
2021/11/06 12:18:44;;;;;;;;;;;11.60;96.50;;;;;;5036492;28;19925;-81
2021/11/06 12:21:20;;;;;;;;;;;11.80;96.50;;;;;;5035252;28;19921;-82
2021/11/06 12:23:50;;;;;;;;;;;11.80;96.50;;;;;;5036297;28;19909;-83
2021/11/06 12:26:27;;;;;;;;;;;11.90;96.50;;;;;;5036478;28;19913;-83
2021/11/06 12:29:02;;;;;;;;;;;12.00;96.50;;;;;;5035931;28;19910;-83
2021/11/06 12:31:36;;;;;;;;;;;12.10;96.40;;;;;;5036419;28;20285;-83
2021/11/06 12:34:02;;;;;;;;;;;12.10;96.30;;;;;;5036182;28;19936;-82
2021/11/06 12:36:28;;;;;;;;;;;12.10;96.30;;;;;;5036185;28;20024;-83
2021/11/06 12:38:58;;;;;;;;;;;12.20;96.30;;;;;;5036252;28;19909;-84
2021/11/06 12:41:27;;;;;;;;;;;12.10;96.30;;;;;;5035843;28;20374;-82
2021/11/06 12:43:53;;;;;;;;;;;12.10;96.30;;;;;;5035527;28;19915;-81
2021/11/06 12:46:26;;;;;;;;;;;12.00;96.20;;;;;;5035912;28;19992;-83
2021/11/06 12:48:54;;;;;;;;;;;12.00;96.20;;;;;;5036147;28;19909;-83
2021/11/06 12:51:20;;;;;;;;;;;11.90;96.30;;;;;;5036017;28;20357;-82
2021/11/06 12:53:53;;;;;;;;;;;11.80;96.30;;;;;;5035954;28;19909;-83
2021/11/06 12:56:22;;;;;;;;;;;11.80;96.40;;;;;;5035689;28;19917;-81
2021/11/06 12:59:02;;;;;;;;;;;11.80;96.40;;;;;;5012330;28;19913;-81
2021/11/06 13:01:29;;;;;;;;;;;11.80;96.40;;;;;;5013049;28;19921;-82
2021/11/06 13:03:55;;;;;;;;;;;11.80;96.40;;;;;;5013334;28;19935;-80
2021/11/06 13:06:31;;;;;;;;;;;11.80;96.40;;;;;;5020181;28;19952;-79
2021/11/06 13:09:02;;;;;;;;;;;11.90;96.40;;;;;;5029596;28;19913;-77
2021/11/06 13:11:46;;;;;;;;;;;11.90;96.30;;;;;;5033331;28;19956;-79
2021/11/06 13:14:28;;;;;;;;;;;11.80;96.30;;;;;;5034792;28;19909;-80
2021/11/06 13:17:20;;;;;;;;;;;11.80;96.40;;;;;;5034662;28;20417;-87
2021/11/06 13:19:47;;;;;;;;;;;11.90;96.40;;;;;;5032768;28;20369;-79
2021/11/06 13:22:15;;;;;;;;;;;11.90;96.40;;;;;;5035603;28;19913;-78
2021/11/06 13:25:04;;;;;;;;;;;11.90;96.30;;;;;;5035167;28;19944;-79
2021/11/06 13:27:37;;;;;;;;;;;11.90;96.30;;;;;;5034786;28;19909;-77
2021/11/06 13:30:24;;;;;;;;;;;11.90;96.30;;;;;;5035267;28;19987;-77
2021/11/06 13:32:51;;;;;;;;;;;11.90;96.40;;;;;;5033817;28;19909;-76
2021/11/06 13:35:20;;;;;;;;;;;11.90;96.30;;;;;;5035030;28;19909;-76
2021/11/06 13:37:45;;;;;;;;;;;12.00;96.50;;;;;;5034939;28;19909;-75
2021/11/06 13:40:11;;;;;;;;;;;12.00;96.50;;;;;;5034712;28;19960;-76
2021/11/06 13:42:36;;;;;;;;;;;12.00;96.40;;;;;;5034365;28;20292;-75
2021/11/06 13:45:09;;;;;;;;;;;12.00;96.40;;;;;;5034823;28;20280;-78
2021/11/06 13:47:44;;;;;;;;;;;12.00;96.40;;;;;;5034918;28;19909;-79
2021/11/06 13:50:09;;;;;;;;;;;12.00;96.40;;;;;;5034965;28;20338;-74
2021/11/06 13:52:35;;;;;;;;;;;11.90;96.40;;;;;;5034715;28;20011;-79
2021/11/06 13:55:09;;;;;;;;;;;12.00;96.50;;;;;;5034598;28;20404;-78
2021/11/06 13:57:35;;;;;;;;;;;12.00;96.50;;;;;;5034148;28;19909;-82
2021/11/06 14:00:00;;;;;;;;;;;12.00;96.40;;;;;;5034387;28;20431;-79
2021/11/06 14:02:29;;;;;;;;;;;12.00;96.40;;;;;;5034423;28;20373;-78
2021/11/06 14:04:56;;;;;;;;;;;11.90;96.40;;;;;;5034338;28;19971;-79
2021/11/06 14:07:26;;;;;;;;;;;11.90;96.40;;;;;;5034171;28;20357;-78
2021/11/06 14:09:53;;;;;;;;;;;11.90;96.40;;;;;;5033846;28;19909;-81
2021/11/06 14:12:31;;;;;;;;;;;11.90;96.40;;;;;;5034401;28;19909;-80
2021/11/06 14:14:58;;;;;;;;;;;11.80;96.40;;;;;;5034225;28;19984;-80
2021/11/06 14:17:23;;;;;;;;;;;11.80;96.50;;;;;;5034017;28;19921;-79
2021/11/06 14:19:52;;;;;;;;;;;11.80;96.50;;;;;;5034152;28;19932;-81
2021/11/06 14:22:25;;;;;;;;;;;11.80;96.50;;;;;;5033922;28;19915;-79
2021/11/06 14:24:51;;;;;;;;;;;11.80;96.50;;;;;;5033556;28;19909;-78